KANQ

Details ICAO KANQ (ANQ)
Name TRI STATE STEUBEN CO
Region United States
Timezone America/Indiana/Indianapolis (UTC-4.0)
Plans Departing 0
Arriving 7
Stats Elevation 995 ft / 303 m (AMSL)
Location 41.639702° -85.083478°
Runways 1
Magnetic Variation 5.895° W
Sunrise 2018-05-25 10:13:54 UTC / 2018-05-25 06:13:54 Local
Sunset 2018-05-26 01:03:33 UTC / 2018-05-25 21:03:33 Local
Advertisement - Login to hide

Runways

ID Width Length Bearing (true) Bearing (mag) Surface Threshold Offset Overrun Length
05 75 ft / 23 m 4,535 ft / 1,382 m 46.91° 52.80° Asphalt 540 ft / 165 m 800 ft / 244 m
23 75 ft / 23 m 4,535 ft / 1,382 m 226.92° 232.81° Asphalt 0 ft / 0 m 0 ft / 0 m

Map

Weather


0- 5 10 15 20 25 30 35+ Temperature / ° C

Clouds and Precipitation
Forecast for 2018-05-25 12:00 UTC. Updated 4 hours ago

Ground ~20,000 ft ~40,000 ft Winds

METAR

KANQ 251455Z AUTO 27008G13KT 10SM CLR 26/12 A2999 RMK AO2 TSNO

TAF

Not found

Frequencies

Unicom 123.07 MHz CTAF/UNICOM
Approach 127.20 MHz FORT WAYNE APP/DEP
Approach 132.15 MHz FORT WAYNE APP/DEP
Warning: Do not use this data for real-world aviation or navigation. No guarantee of current accuracy is given.